D/T METAR WX W/DIR W/SPE G/SPE TEMP DEWP
20/05/19 01:20 EGLF 200020Z AUTO VRB02KT 8000 NCD 12/11 Q1011 N (0°) 2.3mph 12°C 11°C
20/05/19 00:50 EGLF 192350Z AUTO 32002KT 9999 NCD 12/11 Q1011 NW (320°) 2.3mph 12°C 11°C
19/05/19 23:50 EGLF 192250Z AUTO 32003KT 9999 FEW032/// 13/11 Q1011 NW (320°) 3.5mph 13°C 11°C
19/05/19 23:20 EGLF 192220Z AUTO 33006KT 9999 FEW038 13/11 Q1011 NNW (330°) 6.9mph 13°C 11°C
19/05/19 22:50 EGLF 192150Z AUTO VRB03KT 9999 FEW041 12/11 Q1011 N (0°) 3.5mph 12°C 11°C
19/05/19 22:20 EGLF 192120Z AUTO 24004KT 9999 FEW037/// BKN047/// 12/11 Q1011 REDZ WSW (240°) 4.6mph 12°C 11°C
19/05/19 21:50 EGLF 192050Z AUTO 21003KT 9999 -RA SCT001/// SCT048/// 13/11 Q1011 RERA -RA SSW (210°) 3.5mph 13°C 11°C
19/05/19 21:20 EGLF 192020Z AUTO 36004KT 280V060 9999 -RADZ BKN001/// BKN034/// BKN042/// 13/10 Q1011 RERA -RA -DZ N (360°) 4.6mph 13°C 10°C
19/05/19 20:50 EGLF 191950Z AUTO 02006KT 3600 RA FEW001/// SCT025/// 14/10 Q1010 RERA RA NNE (20°) 6.9mph 14°C 10°C
19/05/19 20:20 EGLF 191920Z AUTO VRB02KT 9999 -RA SCT038/// SCT047/// 16/09 Q1010 -RA N (0°) 2.3mph 16°C 9°C
19/05/19 19:50 EGLF 191850Z AUTO VRB03KT 9999 FEW042/// 17/09 Q1010 N (0°) 3.5mph 17°C 9°C
19/05/19 19:20 EGLF 191820Z AUTO 11007KT 9999 FEW039/// 17/09 Q1009 ESE (110°) 8.1mph 17°C 9°C
19/05/19 18:50 EGLF 191750Z AUTO 08004KT 040V110 9999 SCT039/// 17/09 Q1009 E (80°) 4.6mph 17°C 9°C
19/05/19 18:20 EGLF 191720Z AUTO 07005KT 030V110 9999 NCD 17/09 Q1009 ENE (70°) 5.8mph 17°C 9°C
19/05/19 17:20 EGLF 191620Z AUTO 09006KT 070V130 9999 NCD 17/09 Q1009 E (90°) 6.9mph 17°C 9°C
19/05/19 16:50 EGLF 191550Z AUTO 09009KT 050V130 9999 FEW047/// 17/09 Q1009 E (90°) 10.4mph 17°C 9°C
19/05/19 16:20 EGLF 191520Z AUTO 05007KT 360V100 9999 FEW045 18/09 Q1009 NE (50°) 8.1mph 18°C 9°C
19/05/19 15:50 EGLF 191450Z AUTO 01007KT 290V060 9999 SCT046 18/08 Q1009 N (10°) 8.1mph 18°C 8°C
19/05/19 15:20 EGLF 191420Z AUTO 03006KT 350V110 9999 SCT043/// 18/08 Q1009 NNE (30°) 6.9mph 18°C 8°C
19/05/19 14:50 EGLF 191350Z AUTO 03005KT 320V090 9999 FEW042/// 18/08 Q1009 NNE (30°) 5.8mph 18°C 8°C
19/05/19 14:20 EGLF 191320Z AUTO 36007KT 330V050 9999 SCT041/// 17/08 Q1010 N (360°) 8.1mph 17°C 8°C
19/05/19 13:50 EGLF 191250Z AUTO VRB05KT 9999 NCD 17/08 Q1010 RERA N (0°) 5.8mph 17°C 8°C
19/05/19 12:50 EGLF 191150Z AUTO 06007KT 010V110 9999 NCD 17/08 Q1010 ENE (60°) 8.1mph 17°C 8°C
19/05/19 12:20 EGLF 191120Z AUTO 05008KT 020V080 9999 FEW028 16/09 Q1010 NE (50°) 9.2mph 16°C 9°C
19/05/19 11:50 EGLF 191050Z 04006KT 010V080 9999 FEW020 15/09 Q1010 NE (40°) 6.9mph 15°C 9°C
19/05/19 10:50 EGLF 190950Z 04006KT 010V080 9999 SCT020 15/10 Q1010 NE (40°) 6.9mph 15°C 10°C
19/05/19 09:50 EGLF 190850Z AUTO 05006KT 350V080 9999 FEW013/// 14/11 Q1009 NE (50°) 6.9mph 14°C 11°C
19/05/19 09:20 EGLF 190820Z AUTO VRB02KT 9999 NCD 12/10 Q1009 N (0°) 2.3mph 12°C 10°C
19/05/19 08:50 EGLF 190750Z AUTO VRB02KT 8000 NCD 11/10 Q1009 N (0°) 2.3mph 11°C 10°C
19/05/19 08:20 EGLF 190720Z AUTO VRB02KT 7000 NCD 10/09 Q1009 N (0°) 2.3mph 10°C 9°C
19/05/19 07:50 EGLF 190650Z VRB02KT 7000 FEW002 09/09 Q1009 N (0°) 2.3mph 9°C 9°C
19/05/19 07:20 EGLF 190620Z AUTO VRB01KT 6000 BKN002/// 09/08 Q1009 N (0°) 1.2mph 9°C 8°C
19/05/19 06:50 EGLF 190550Z AUTO 22001KT 4400 BR OVC002 08/08 Q1009 BR SW (220°) 1.2mph 8°C 8°C
19/05/19 06:20 EGLF 190520Z AUTO 24003KT 3800 BR OVC002/// 08/07 Q1009 BR WSW (240°) 3.5mph 8°C 7°C
19/05/19 05:50 EGLF 190450Z AUTO 23002KT 3300 BR BKN002/// 07/07 Q1009 BR SW (230°) 2.3mph 7°C 7°C
19/05/19 05:20 EGLF 190420Z AUTO 00000KT 0450 FG SCT002/// 07/06 Q1008 FG N (0°) 7°C 6°C
19/05/19 04:50 EGLF 190350Z AUTO VRB02KT 0550 FG BKN002 07/06 Q1008 FG N (0°) 2.3mph 7°C 6°C
19/05/19 04:20 EGLF 190320Z AUTO 28001KT 0450 FG SCT001/// 07/07 Q1008 FG W (280°) 1.2mph 7°C 7°C
19/05/19 03:50 EGLF 190250Z AUTO 24001KT 0600 FG VV/// 07/06 Q1008 FG WSW (240°) 1.2mph 7°C 6°C
19/05/19 03:20 EGLF 190220Z AUTO VRB01KT 7000 BKN000 BKN032 06/05 Q1008 N (0°) 1.2mph 6°C 5°C
19/05/19 02:50 EGLF 190150Z AUTO 21002KT 9999 FEW001/// 06/05 Q1008 SSW (210°) 2.3mph 6°C 5°C
19/05/19 02:20 EGLF 190120Z AUTO 21002KT 9999 FEW002/// 06/05 Q1008 SSW (210°) 2.3mph 6°C 5°C
19/05/19 01:50 EGLF 190050Z AUTO 26001KT 9999 NCD 07/06 Q1008 W (260°) 1.2mph 7°C 6°C
19/05/19 01:20 EGLF 190020Z AUTO 24003KT 9999 NCD 06/05 Q1008 WSW (240°) 3.5mph 6°C 5°C
19/05/19 00:50 EGLF 182350Z AUTO 23004KT 8000 NCD 07/06 Q1008 SW (230°) 4.6mph 7°C 6°C
19/05/19 00:20 EGLF 182320Z AUTO 21002KT 9999 NCD 07/07 Q1008 SSW (210°) 2.3mph 7°C 7°C
18/05/19 23:50 EGLF 182250Z AUTO 21001KT 9999 NCD 08/07 Q1008 SSW (210°) 1.2mph 8°C 7°C
18/05/19 23:20 EGLF 182220Z AUTO 23004KT 9999 NCD 09/08 Q1008 SW (230°) 4.6mph 9°C 8°C